createdAt,value
2017-11-07T00:02:07.695Z,185.73
2017-11-07T00:04:35.870Z,99.53
2017-11-07T00:07:04.023Z,125.57
2017-11-07T00:09:32.557Z,78.35
2017-11-07T00:12:01.560Z,110.40
2017-11-07T00:14:30.496Z,70.50
2017-11-07T00:16:58.905Z,157.32
2017-11-07T00:19:27.063Z,81.35
2017-11-07T00:21:55.206Z,91.25
2017-11-07T00:24:23.371Z,128.30
2017-11-07T00:26:51.536Z,119.18
2017-11-07T00:29:19.693Z,95.70
2017-11-07T00:31:48.231Z,76.82
2017-11-07T00:34:17.146Z,76.00
2017-11-07T00:36:45.287Z,94.15
2017-11-07T00:39:13.479Z,98.12
2017-11-07T00:41:41.733Z,190.98
2017-11-07T00:44:09.906Z,132.45
2017-11-07T00:46:38.187Z,244.23
2017-11-07T00:49:06.336Z,161.12
2017-11-07T00:51:34.535Z,96.70
2017-11-07T00:54:02.687Z,104.10
2017-11-07T00:56:30.839Z,92.18
2017-11-07T00:58:59.824Z,178.75
2017-11-07T01:01:28.770Z,220.35
2017-11-07T01:03:56.939Z,205.40
2017-11-07T01:06:25.112Z,210.63
2017-11-07T01:08:53.264Z,378.17
2017-11-07T01:11:21.465Z,122.25
2017-11-07T01:13:49.619Z,148.30
2017-11-07T01:16:17.811Z,99.55
2017-11-07T01:18:46.571Z,153.18
2017-11-07T01:21:14.752Z,135.00
2017-11-07T01:23:42.908Z,104.97
2017-11-07T01:26:11.078Z,141.32
2017-11-07T01:28:39.225Z,148.62
2017-11-07T01:31:08.159Z,73.55
2017-11-07T01:33:36.306Z,143.55
2017-11-07T01:36:04.451Z,159.23
2017-11-07T01:38:33.387Z,132.50
2017-11-07T01:41:01.535Z,105.05
2017-11-07T01:43:30.706Z,125.87
2017-11-07T01:45:58.854Z,151.68
2017-11-07T01:48:27.014Z,196.65
2017-11-07T01:50:55.150Z,161.07
2017-11-07T01:53:24.083Z,74.07
2017-11-07T01:55:52.293Z,233.32
2017-11-07T01:58:21.232Z,106.90
2017-11-07T02:00:49.485Z,150.95
2017-11-07T02:03:17.724Z,95.90
2017-11-07T02:05:45.959Z,114.57
2017-11-07T02:08:14.124Z,113.32
2017-11-07T02:10:42.278Z,124.47
2017-11-07T02:13:10.483Z,85.12
2017-11-07T02:15:39.242Z,110.65
2017-11-07T02:18:07.445Z,97.07
2017-11-07T02:20:35.623Z,72.35
2017-11-07T02:23:03.768Z,103.65
2017-11-07T02:25:31.918Z,72.47
2017-11-07T02:28:00.836Z,51.58
2017-11-07T02:30:28.990Z,49.97
2017-11-07T02:32:57.126Z,53.47
2017-11-07T02:35:25.303Z,58.63
2017-11-07T02:37:53.427Z,78.30
2017-11-07T02:40:21.596Z,35.45
2017-11-07T02:42:49.731Z,46.15
2017-11-07T02:45:18.659Z,46.08
2017-11-07T02:47:47.019Z,68.25
2017-11-07T02:50:15.978Z,56.45
2017-11-07T02:52:44.119Z,73.90
2017-11-07T02:55:12.272Z,38.88
2017-11-07T02:57:40.437Z,97.88
2017-11-07T03:00:08.593Z,85.78
2017-11-07T03:02:37.516Z,52.17
2017-11-07T03:05:06.221Z,49.00
2017-11-07T03:07:34.587Z,88.40
2017-11-07T03:10:02.736Z,51.47
2017-11-07T03:12:30.910Z,54.22
2017-11-07T03:14:59.054Z,95.95
2017-11-07T03:17:28.101Z,60.97
2017-11-07T03:19:56.242Z,85.68
2017-11-07T03:22:24.410Z,53.03
2017-11-07T03:24:53.319Z,41.35
2017-11-07T03:27:21.487Z,61.50
2017-11-07T03:29:49.838Z,76.85
2017-11-07T03:32:18.760Z,74.43
2017-11-07T03:34:46.918Z,34.72
2017-11-07T03:37:15.064Z,72.85
2017-11-07T03:39:43.249Z,84.65
2017-11-07T03:42:12.154Z,40.25
2017-11-07T03:44:40.423Z,73.97
2017-11-07T03:47:09.639Z,35.55
2017-11-07T03:49:37.796Z,159.25
2017-11-07T03:52:06.001Z,40.38
2017-11-07T03:54:34.164Z,34.63
2017-11-07T03:57:02.298Z,25.17
2017-11-07T03:59:31.214Z,28.27
2017-11-07T04:01:59.352Z,67.90
2017-11-07T04:04:27.513Z,44.47
2017-11-07T04:06:55.658Z,36.40
2017-11-07T04:09:23.832Z,48.55
2017-11-07T04:11:52.001Z,70.47
2017-11-07T04:14:20.158Z,66.55
2017-11-07T04:16:48.891Z,65.90
2017-11-07T04:19:17.046Z,67.03
2017-11-07T04:21:45.181Z,62.83
2017-11-07T04:24:13.345Z,78.65
2017-11-07T04:26:41.497Z,69.65
2017-11-07T04:29:10.468Z,38.00
2017-11-07T04:31:38.622Z,41.85
2017-11-07T04:34:06.780Z,28.52
2017-11-07T04:36:34.937Z,47.17
2017-11-07T04:39:03.074Z,152.82
2017-11-07T04:41:32.725Z,44.78
2017-11-07T04:44:00.908Z,45.15
2017-11-07T04:46:29.068Z,32.70
2017-11-07T04:48:57.201Z,25.42
2017-11-07T04:51:26.132Z,61.92
2017-11-07T04:53:54.268Z,30.20
2017-11-07T04:56:23.182Z,47.58
2017-11-07T04:58:51.336Z,25.55
2017-11-07T05:01:20.978Z,31.95
2017-11-07T05:03:49.119Z,22.65
2017-11-07T05:06:18.142Z,33.40
2017-11-07T05:08:46.278Z,36.60
2017-11-07T05:11:15.222Z,26.15
2017-11-07T05:13:43.385Z,31.33
2017-11-07T05:16:12.704Z,43.03
2017-11-07T05:18:40.891Z,30.35
2017-11-07T05:21:09.139Z,53.25
2017-11-07T05:23:37.296Z,70.50
2017-11-07T05:26:05.441Z,63.28
2017-11-07T05:28:34.360Z,60.63
2017-11-07T05:31:02.490Z,48.60
2017-11-07T05:33:31.411Z,45.15
2017-11-07T05:35:59.557Z,45.80
2017-11-07T05:38:28.475Z,48.50
2017-11-07T05:40:56.597Z,38.15
2017-11-07T05:43:24.750Z,26.33
2017-11-07T05:45:52.884Z,29.80
2017-11-07T05:48:21.052Z,23.87
2017-11-07T05:50:49.186Z,21.60
2017-11-07T05:53:17.425Z,19.23
2017-11-07T05:55:45.607Z,16.62
2017-11-07T05:58:13.748Z,20.77
2017-11-07T06:00:41.894Z,18.15
2017-11-07T06:03:10.790Z,14.07
2017-11-07T06:05:39.719Z,20.52
2017-11-07T06:08:07.851Z,16.85
2017-11-07T06:10:36.780Z,17.30
2017-11-07T06:13:04.916Z,23.80
2017-11-07T06:15:34.355Z,18.60
2017-11-07T06:18:02.491Z,15.15
2017-11-07T06:20:31.546Z,21.08
2017-11-07T06:22:59.794Z,23.02
2017-11-07T06:25:27.971Z,27.60
2017-11-07T06:27:56.146Z,25.35
2017-11-07T06:30:24.307Z,25.80
2017-11-07T06:32:52.487Z,33.13
2017-11-07T06:35:20.776Z,28.45
2017-11-07T06:37:48.943Z,22.83
2017-11-07T06:40:17.424Z,24.20
2017-11-07T06:42:45.672Z,25.30
2017-11-07T06:45:13.812Z,22.45
2017-11-07T06:47:41.991Z,24.05
2017-11-07T06:50:10.907Z,23.25
2017-11-07T06:52:39.107Z,19.15
2017-11-07T06:55:07.322Z,20.75
2017-11-07T06:57:35.531Z,32.10
2017-11-07T07:00:03.678Z,29.65
2017-11-07T07:02:32.610Z,20.33
2017-11-07T07:05:00.765Z,20.58
2017-11-07T07:07:28.932Z,22.80
2017-11-07T07:09:57.551Z,29.73
2017-11-07T07:12:25.702Z,18.85
2017-11-07T07:14:53.855Z,20.10
2017-11-07T07:17:22.000Z,26.58
2017-11-07T07:19:50.146Z,24.52
2017-11-07T07:22:18.317Z,21.33
2017-11-07T07:24:46.466Z,17.58
2017-11-07T07:27:14.606Z,25.60
2017-11-07T07:29:43.530Z,22.30
2017-11-07T07:32:12.278Z,19.02
2017-11-07T07:34:41.221Z,36.25
2017-11-07T07:37:09.352Z,26.02
2017-11-07T07:39:38.378Z,23.30
2017-11-07T07:42:06.528Z,27.40
2017-11-07T07:44:34.737Z,22.90
2017-11-07T07:47:02.862Z,18.58
2017-11-07T07:49:31.787Z,22.08
2017-11-07T07:51:59.926Z,20.15
2017-11-07T07:54:28.851Z,19.90
2017-11-07T07:56:57.007Z,18.10
2017-11-07T07:59:25.151Z,20.02
2017-11-07T08:01:54.087Z,23.60
2017-11-07T08:04:23.142Z,21.25
2017-11-07T08:06:52.182Z,25.15
2017-11-07T08:09:20.341Z,25.33
2017-11-07T08:11:48.499Z,22.65
2017-11-07T08:14:16.660Z,24.45
2017-11-07T08:16:44.820Z,23.65
2017-11-07T08:19:13.748Z,28.10
2017-11-07T08:21:41.903Z,23.20
2017-11-07T08:24:10.049Z,26.08
2017-11-07T08:26:38.999Z,26.58
2017-11-07T08:29:08.066Z,24.98
2017-11-07T08:31:36.255Z,21.27
2017-11-07T08:34:04.402Z,24.80
2017-11-07T08:36:32.595Z,27.50
2017-11-07T08:39:00.761Z,23.05
2017-11-07T08:41:28.941Z,30.50
2017-11-07T08:43:57.112Z,21.33
2017-11-07T08:46:25.310Z,26.75
2017-11-07T08:48:53.454Z,22.73
2017-11-07T08:51:22.071Z,19.50
2017-11-07T08:53:50.229Z,23.12
2017-11-07T08:56:18.374Z,28.27
2017-11-07T08:58:46.526Z,25.95
2017-11-07T09:01:15.476Z,27.03
2017-11-07T09:03:43.626Z,24.10
2017-11-07T09:06:11.804Z,19.47
2017-11-07T09:08:40.699Z,22.40
2017-11-07T09:11:09.579Z,20.90
2017-11-07T09:13:37.745Z,24.40
2017-11-07T09:16:05.887Z,25.83
2017-11-07T09:18:34.819Z,19.63
2017-11-07T09:21:02.986Z,22.17
2017-11-07T09:23:31.168Z,26.30
2017-11-07T09:25:59.306Z,23.03
2017-11-07T09:28:27.471Z,26.23
2017-11-07T09:30:56.389Z,34.97
2017-11-07T09:33:24.547Z,22.20
2017-11-07T09:35:52.726Z,31.80
2017-11-07T09:38:20.881Z,24.40
2017-11-07T09:40:49.052Z,19.17
2017-11-07T09:43:17.967Z,18.30
2017-11-07T09:45:46.131Z,15.93
2017-11-07T09:48:14.278Z,17.00
2017-11-07T09:50:43.231Z,26.33
2017-11-07T09:53:11.380Z,22.27
2017-11-07T09:55:39.554Z,22.83
2017-11-07T09:58:07.708Z,14.67
2017-11-07T10:00:35.863Z,23.37
2017-11-07T10:03:04.788Z,17.70
2017-11-07T10:05:32.951Z,15.20
2017-11-07T10:08:01.920Z,16.97
2017-11-07T10:10:30.871Z,18.83
2017-11-07T10:12:59.020Z,22.83
2017-11-07T10:15:27.169Z,22.90
2017-11-07T10:17:55.370Z,21.90
2017-11-07T10:20:23.521Z,17.33
2017-11-07T10:22:51.736Z,19.17
2017-11-07T10:25:19.884Z,21.40
2017-11-07T10:27:48.056Z,17.50
2017-11-07T10:30:16.727Z,18.43
2017-11-07T10:32:44.886Z,17.20
2017-11-07T10:35:14.712Z,16.73
2017-11-07T10:37:42.872Z,16.63
2017-11-07T10:40:11.009Z,13.97
2017-11-07T10:42:39.177Z,20.43
2017-11-07T10:45:07.320Z,18.73
2017-11-07T10:47:35.481Z,17.07
2017-11-07T10:50:03.622Z,10.97
2017-11-07T10:52:32.590Z,18.90
2017-11-07T10:55:00.831Z,18.63
2017-11-07T10:57:29.013Z,19.07
2017-11-07T10:59:58.107Z,15.77
2017-11-07T11:02:26.251Z,21.40
2017-11-07T11:04:54.414Z,14.40
2017-11-07T11:07:22.558Z,19.13
2017-11-07T11:09:50.722Z,19.47
2017-11-07T11:12:18.877Z,12.17
2017-11-07T11:14:47.048Z,14.27
2017-11-07T11:17:15.196Z,23.13
2017-11-07T11:19:43.378Z,18.97
2017-11-07T11:22:12.038Z,20.77
2017-11-07T11:24:40.243Z,20.93
2017-11-07T11:27:08.395Z,24.20
2017-11-07T11:29:36.591Z,23.20
2017-11-07T11:32:04.763Z,20.43
2017-11-07T11:34:33.013Z,19.30
2017-11-07T11:37:01.176Z,26.70
2017-11-07T11:39:29.382Z,18.80
2017-11-07T11:41:57.543Z,20.00
2017-11-07T11:44:25.712Z,17.23
2017-11-07T11:46:53.882Z,19.53
2017-11-07T11:49:22.035Z,19.67
2017-11-07T11:51:50.231Z,23.90
2017-11-07T11:54:18.474Z,20.40
2017-11-07T11:56:47.404Z,21.13
2017-11-07T11:59:15.551Z,25.97
2017-11-07T12:01:43.715Z,19.33
2017-11-07T12:04:11.866Z,19.30
2017-11-07T12:06:40.030Z,15.13
2017-11-07T12:09:08.855Z,18.80
2017-11-07T12:11:37.033Z,21.87
2017-11-07T12:14:05.230Z,22.70
2017-11-07T12:16:33.444Z,19.23
2017-11-07T12:19:01.681Z,22.20
2017-11-07T12:21:29.826Z,12.13
2017-11-07T12:23:57.995Z,19.17
2017-11-07T12:26:26.145Z,21.60
2017-11-07T12:28:55.087Z,18.13
2017-11-07T12:31:23.246Z,14.80
2017-11-07T12:33:51.963Z,14.77
2017-11-07T12:36:20.135Z,18.73
2017-11-07T12:38:48.303Z,17.63
2017-11-07T12:41:16.462Z,15.87
2017-11-07T12:43:44.738Z,13.47
2017-11-07T12:46:12.887Z,17.47
2017-11-07T12:48:41.047Z,16.07
2017-11-07T12:54:32.411Z,14.57
2017-11-07T12:57:00.600Z,21.13
2017-11-07T12:59:28.875Z,16.70
2017-11-07T13:01:57.031Z,16.20
2017-11-07T13:04:25.196Z,31.10
2017-11-07T13:06:53.562Z,20.77
2017-11-07T13:09:21.723Z,20.40
2017-11-07T13:11:50.747Z,23.50
2017-11-07T13:14:18.944Z,18.47
2017-11-07T13:16:47.099Z,16.70
2017-11-07T13:19:15.276Z,16.57
2017-11-07T13:21:43.440Z,18.07
2017-11-07T13:24:11.595Z,18.60
2017-11-07T13:26:39.749Z,22.90
2017-11-07T13:29:08.692Z,24.00
2017-11-07T13:31:37.165Z,16.53
2017-11-07T13:34:05.800Z,22.10
2017-11-07T13:36:34.709Z,23.10
2017-11-07T13:39:03.726Z,23.73
2017-11-07T13:41:31.885Z,23.37
2017-11-07T13:44:00.050Z,15.83
2017-11-07T13:46:28.230Z,16.33
2017-11-07T13:48:56.386Z,19.10
2017-11-07T13:51:24.559Z,21.90
2017-11-07T13:53:53.165Z,17.03
2017-11-07T13:56:21.330Z,18.70
2017-11-07T13:58:50.296Z,14.37
2017-11-07T14:01:19.238Z,29.87
2017-11-07T14:03:47.413Z,17.00
2017-11-07T14:06:15.671Z,19.00
2017-11-07T14:08:43.818Z,20.07
2017-11-07T14:11:12.209Z,22.57
2017-11-07T14:13:40.359Z,25.80
2017-11-07T14:16:09.292Z,26.63
2017-11-07T14:18:37.452Z,17.17
2017-11-07T14:21:05.643Z,16.67
2017-11-07T14:23:33.787Z,15.27
2017-11-07T14:26:01.961Z,22.90
2017-11-07T14:28:30.114Z,18.87
2017-11-07T14:30:59.074Z,22.17
2017-11-07T14:33:27.346Z,25.30
2017-11-07T14:35:55.499Z,14.97
2017-11-07T14:38:23.769Z,25.20
2017-11-07T14:40:51.931Z,15.40
2017-11-07T14:43:20.174Z,15.90
2017-11-07T14:45:49.102Z,20.10
2017-11-07T14:48:17.274Z,15.60
2017-11-07T14:50:45.414Z,16.97
2017-11-07T14:53:14.353Z,25.40
2017-11-07T14:55:42.523Z,20.80
2017-11-07T14:58:10.688Z,18.30
2017-11-07T15:00:38.851Z,19.03
2017-11-07T15:03:07.037Z,21.63
2017-11-07T15:05:35.182Z,20.83
2017-11-07T15:08:03.358Z,24.93
2017-11-07T15:10:31.492Z,18.67
2017-11-07T15:12:59.727Z,14.03
2017-11-07T15:15:27.893Z,15.60
2017-11-07T15:17:56.090Z,15.00
2017-11-07T15:20:24.254Z,18.37
2017-11-07T15:22:52.404Z,19.23
2017-11-07T15:25:20.590Z,23.33
2017-11-07T15:27:48.756Z,18.27
2017-11-07T15:30:16.919Z,22.47
2017-11-07T15:32:45.087Z,16.13
2017-11-07T15:35:13.271Z,19.07
2017-11-07T15:37:41.414Z,21.57
2017-11-07T15:40:09.951Z,14.57
2017-11-07T15:42:38.118Z,21.93
2017-11-07T15:45:06.289Z,20.20
2017-11-07T15:47:34.463Z,20.77
2017-11-07T15:50:02.722Z,17.70
2017-11-07T15:52:30.866Z,14.27
2017-11-07T15:54:59.055Z,17.13
2017-11-07T15:57:27.206Z,15.40
2017-11-07T15:59:56.115Z,15.97
2017-11-07T16:02:24.271Z,21.60
2017-11-07T16:04:52.946Z,24.73
2017-11-07T16:07:21.140Z,25.47
2017-11-07T16:09:49.333Z,16.30
2017-11-07T16:12:17.498Z,19.50
2017-11-07T16:14:45.677Z,20.00
2017-11-07T16:17:13.831Z,18.43
2017-11-07T16:19:41.975Z,21.20
2017-11-07T16:22:10.901Z,23.43
2017-11-07T16:24:39.063Z,24.70
2017-11-07T16:27:07.859Z,15.80
2017-11-07T16:29:36.009Z,22.97
2017-11-07T16:32:05.142Z,21.60
2017-11-07T16:34:33.292Z,18.00
2017-11-07T16:37:01.446Z,14.83
2017-11-07T16:39:30.356Z,20.13
2017-11-07T16:41:58.507Z,18.00
2017-11-07T16:44:27.447Z,24.53
2017-11-07T16:46:55.702Z,17.40
2017-11-07T16:49:23.871Z,22.40
2017-11-07T16:51:52.016Z,27.17
2017-11-07T16:54:20.947Z,20.37
2017-11-07T16:56:49.116Z,17.80
2017-11-07T16:59:17.296Z,30.97
2017-11-07T17:01:45.522Z,22.30
2017-11-07T17:04:14.456Z,21.73
2017-11-07T17:06:42.600Z,19.47
2017-11-07T17:09:11.544Z,22.37
2017-11-07T17:11:40.139Z,19.83
2017-11-07T17:14:08.320Z,21.50
2017-11-07T17:16:36.836Z,19.63
2017-11-07T17:19:05.043Z,19.47
2017-11-07T17:21:33.190Z,21.53
2017-11-07T17:24:01.363Z,16.73
2017-11-07T17:26:29.515Z,22.27
2017-11-07T17:28:58.982Z,30.57
2017-11-07T17:31:27.143Z,22.00
2017-11-07T17:33:55.283Z,23.90
2017-11-07T17:36:23.731Z,29.63
2017-11-07T17:38:52.680Z,29.40
2017-11-07T17:41:21.675Z,23.80
2017-11-07T17:43:49.848Z,34.27
2017-11-07T17:46:18.026Z,31.93
2017-11-07T17:48:46.166Z,33.90
2017-11-07T17:51:14.475Z,43.67
2017-11-07T17:53:42.613Z,35.73
2017-11-07T17:56:10.799Z,30.20
2017-11-07T17:58:38.952Z,22.97
2017-11-07T18:01:07.121Z,22.37
2017-11-07T18:03:35.574Z,26.57
2017-11-07T18:06:03.804Z,33.10
2017-11-07T18:08:31.954Z,32.70
2017-11-07T18:11:00.100Z,29.20
2017-11-07T18:13:29.679Z,21.73
2017-11-07T18:15:57.825Z,23.57
2017-11-07T18:18:26.002Z,37.27
2017-11-07T18:20:54.175Z,25.37
2017-11-07T18:23:22.358Z,32.50
2017-11-07T18:25:50.516Z,27.20
2017-11-07T18:28:18.679Z,28.70
2017-11-07T18:30:46.834Z,30.03
2017-11-07T18:33:15.020Z,34.60
2017-11-07T18:35:43.176Z,31.20
2017-11-07T18:38:11.382Z,38.30
2017-11-07T18:40:39.526Z,36.80
2017-11-07T18:43:07.753Z,43.93
2017-11-07T18:45:35.902Z,33.03
2017-11-07T18:48:04.058Z,37.23
2017-11-07T18:50:32.242Z,38.00
2017-11-07T18:53:00.427Z,36.50
2017-11-07T18:55:28.643Z,49.63
2017-11-07T18:57:57.579Z,43.83
2017-11-07T19:00:25.747Z,38.30
2017-11-07T19:02:54.093Z,38.07
2017-11-07T19:05:23.035Z,52.33
2017-11-07T19:07:51.203Z,52.40
2017-11-07T19:10:19.382Z,42.50
2017-11-07T19:12:47.543Z,38.83
2017-11-07T19:15:16.026Z,40.90
2017-11-07T19:17:44.199Z,39.57
2017-11-07T19:20:12.380Z,45.00
2017-11-07T19:22:40.558Z,46.53
2017-11-07T19:25:08.768Z,46.60
2017-11-07T19:27:37.712Z,44.53
2017-11-07T19:30:05.865Z,55.70
2017-11-07T19:32:34.037Z,49.43
2017-11-07T19:35:02.201Z,57.03
2017-11-07T19:37:30.381Z,65.17
2017-11-07T19:39:58.531Z,47.67
2017-11-07T19:42:27.481Z,75.10
2017-11-07T19:44:55.627Z,78.40
2017-11-07T19:47:23.812Z,67.37
2017-11-07T19:49:51.969Z,65.40
2017-11-07T19:52:20.149Z,55.37
2017-11-07T19:54:48.309Z,51.40
2017-11-07T19:57:16.492Z,63.43
2017-11-07T19:59:44.653Z,67.87
2017-11-07T20:02:13.059Z,68.13
2017-11-07T20:04:41.228Z,72.77
2017-11-07T20:07:09.424Z,68.00
2017-11-07T20:09:37.675Z,89.30
2017-11-07T20:12:05.852Z,71.93
2017-11-07T20:14:34.045Z,78.20
2017-11-07T20:17:02.235Z,62.07
2017-11-07T20:19:30.417Z,79.20
2017-11-07T20:21:59.357Z,74.60
2017-11-07T20:24:27.531Z,55.93
2017-11-07T20:26:55.810Z,58.73
2017-11-07T20:29:23.993Z,76.53
2017-11-07T20:31:52.153Z,65.20
2017-11-07T20:34:20.354Z,65.43
2017-11-07T20:36:48.507Z,65.93
2017-11-07T20:39:16.675Z,63.20
2017-11-07T20:41:44.830Z,71.73
2017-11-07T20:44:13.015Z,69.17
2017-11-07T20:46:41.692Z,65.43
2017-11-07T20:49:09.850Z,77.63
2017-11-07T20:51:38.007Z,87.50
2017-11-07T20:54:06.170Z,70.57
2017-11-07T20:56:35.107Z,77.87
2017-11-07T20:59:03.275Z,75.63
2017-11-07T21:01:31.444Z,83.60
2017-11-07T21:03:59.652Z,72.07
2017-11-07T21:06:27.902Z,68.83
2017-11-07T21:08:56.064Z,75.87
2017-11-07T21:11:24.243Z,74.67
2017-11-07T21:13:52.422Z,71.03
2017-11-07T21:16:20.590Z,73.30
2017-11-07T21:18:51.798Z,62.13
2017-11-07T21:21:20.731Z,70.03
2017-11-07T21:23:49.212Z,68.23
2017-11-07T21:26:17.480Z,76.40
2017-11-07T21:28:45.622Z,81.17
2017-11-07T21:31:13.822Z,77.93
2017-11-07T21:33:41.971Z,65.10
2017-11-07T21:36:10.223Z,64.93
2017-11-07T21:38:39.135Z,78.73
2017-11-07T21:41:07.331Z,68.90
2017-11-07T21:43:36.255Z,67.13
2017-11-07T21:46:04.415Z,72.73
2017-11-07T21:48:32.689Z,74.67
2017-11-07T21:51:00.835Z,82.80
2017-11-07T21:53:28.998Z,66.37
2017-11-07T21:55:57.161Z,77.13
2017-11-07T21:58:25.348Z,64.60
2017-11-07T22:00:53.518Z,79.93
2017-11-07T22:03:21.682Z,74.30
2017-11-07T22:05:49.842Z,80.83
2017-11-07T22:08:18.849Z,70.33
2017-11-07T22:10:47.056Z,79.47
2017-11-07T22:13:15.218Z,77.10
2017-11-07T22:15:43.371Z,70.00
2017-11-07T22:18:11.526Z,72.40
2017-11-07T22:20:40.526Z,95.80
2017-11-07T22:23:27.375Z,74.70
2017-11-07T22:25:55.539Z,68.60
2017-11-07T22:28:23.710Z,70.60
2017-11-07T22:30:51.870Z,80.50
2017-11-07T22:33:20.307Z,75.30
2017-11-07T22:35:48.625Z,70.73
2017-11-07T22:38:16.785Z,76.13
2017-11-07T22:40:45.566Z,67.67
2017-11-07T22:43:14.490Z,80.13
2017-11-07T22:45:42.685Z,76.53
2017-11-07T22:48:10.909Z,71.20
2017-11-07T22:50:39.838Z,81.93
2017-11-07T22:53:08.711Z,72.07
2017-11-07T22:55:36.887Z,85.43
2017-11-07T22:58:05.034Z,75.40
2017-11-07T23:00:33.704Z,88.73
2017-11-07T23:03:02.639Z,82.47
2017-11-07T23:05:30.811Z,89.77
2017-11-07T23:07:59.018Z,84.90
2017-11-07T23:10:27.803Z,84.10
2017-11-07T23:12:58.425Z,79.17
2017-11-07T23:15:26.946Z,85.50
2017-11-07T23:17:55.928Z,98.13
2017-11-07T23:20:24.870Z,89.80
2017-11-07T23:22:53.119Z,90.03
2017-11-07T23:25:21.354Z,90.30
2017-11-07T23:27:49.803Z,89.00
2017-11-07T23:30:17.955Z,103.23
2017-11-07T23:32:46.118Z,91.20
2017-11-07T23:35:14.271Z,98.30
2017-11-07T23:37:43.199Z,87.00
2017-11-07T23:40:11.575Z,114.40
2017-11-07T23:42:39.854Z,100.73
2017-11-07T23:45:07.983Z,96.80
2017-11-07T23:47:37.424Z,92.00
2017-11-07T23:50:06.177Z,103.23
2017-11-07T23:52:35.082Z,99.03
2017-11-07T23:55:03.687Z,103.72
2017-11-07T23:57:31.865Z,111.63
